CheckWX is a tool to help pilots better visualize weather data.  It is not intended as a substitute for an official pre-flight weather briefing.

11:17:59 UTC

KDLH METAR
Duluth International Airport
Duluth, Minnesota, USA
Current

23 mins ago

KDLH 221055Z 10021G31KT 4SM -RA BR FEW007 OVC013 07/05 A2974 RMK AO2 PK WND 09035/1025 RAB06 SLP079 P0000 T00720050
Observed
May-22 @ 10:55 UTC
Wind
  • 100° at 21 KTS
  • Gusting to 31 KTS
Visibility
4 SM
Flight Rules
MVFR
Conditions
Light Rain, Mist
Cloud Levels
  • Few at 700' AGL
  • Overcast at 1,300' AGL
Temperature
C / 45°F
Dewpoint
C / 41°F
Humidity
87%
Altimeter
29.74" Hg
Pressure
1007.12 hPa
Current Rain
0.01"
Previous

35 mins ago

KDLH 221043Z 09023G34KT 2 1/2SM -RA BR FEW008 BKN014 OVC020 07/06 A2975 RMK AO2 PK WND 09035/1025 VIS 1 3/4 RWY 27 RAB06 P0000 T00720056
Observed
May-22 @ 10:43 UTC
Wind
  • 090° at 23 KTS
  • Gusting to 34 KTS
Visibility
2 1/2 SM
Flight Rules
IFR
Conditions
Light Rain, Mist
Cloud Levels
  • Few at 800' AGL
  • Broken at 1,400' AGL
  • Overcast at 2,000' AGL
Temperature
C / 45°F
Dewpoint
C / 43°F
Humidity
93%
Altimeter
29.75" Hg
Pressure
1007.42 hPa
Current Rain
0.01"
Previous

1 hour ago

KDLH 220955Z 09020G26KT 10SM FEW006 BKN024 OVC029 08/06 A2976 RMK AO2 PK WND 09034/0939 RAE53 SLP085 P0007 T00780056
Observed
May-22 @ 09:55 UTC
Wind
  • 090° at 20 KTS
  • Gusting to 26 KTS
Visibility
10 SM
Flight Rules
MVFR
Cloud Levels
  • Few at 600' AGL
  • Broken at 2,400' AGL
  • Overcast at 2,900' AGL
Temperature
C / 46°F
Dewpoint
C / 43°F
Humidity
87%
Altimeter
29.76" Hg
Pressure
1007.82 hPa
Current Rain
0.07"